sensor_id;sensor_type;location;lat;lon;timestamp;pressure;altitude;pressure_sealevel;temperature;humidity
30338;BME280;17143;51.888;5.408;2022-11-20T00:12:20;101218.84;;;-1.90;100.00
30338;BME280;17143;51.888;5.408;2022-11-20T00:27:22;101226.25;;;-2.00;100.00
30338;BME280;17143;51.888;5.408;2022-11-20T00:42:24;101194.56;;;-2.02;100.00
30338;BME280;17143;51.888;5.408;2022-11-20T00:57:26;101189.03;;;-2.13;100.00
30338;BME280;17143;51.888;5.408;2022-11-20T01:12:28;101183.78;;;-2.15;100.00
30338;BME280;17143;51.888;5.408;2022-11-20T01:27:30;101183.09;;;-2.21;100.00
30338;BME280;17143;51.888;5.408;2022-11-20T01:42:32;101186.47;;;-2.29;100.00
30338;BME280;17143;51.888;5.408;2022-11-20T01:57:35;101169.41;;;-2.37;100.00
30338;BME280;17143;51.888;5.408;2022-11-20T02:12:37;101180.75;;;-2.42;100.00
30338;BME280;17143;51.888;5.408;2022-11-20T02:27:40;101157.88;;;-2.49;100.00
30338;BME280;17143;51.888;5.408;2022-11-20T02:42:42;101177.28;;;-2.58;100.00
30338;BME280;17143;51.888;5.408;2022-11-20T02:57:44;101180.78;;;-2.65;100.00
30338;BME280;17143;51.888;5.408;2022-11-20T03:12:46;101158.00;;;-2.63;100.00
30338;BME280;17143;51.888;5.408;2022-11-20T03:27:48;101145.66;;;-2.67;100.00
30338;BME280;17143;51.888;5.408;2022-11-20T03:42:51;101131.16;;;-2.75;100.00
30338;BME280;17143;51.888;5.408;2022-11-20T03:57:53;101119.97;;;-2.84;100.00
30338;BME280;17143;51.888;5.408;2022-11-20T04:12:55;101111.66;;;-2.90;100.00
30338;BME280;17143;51.888;5.408;2022-11-20T04:27:57;101096.09;;;-3.00;100.00
30338;BME280;17143;51.888;5.408;2022-11-20T04:42:59;101087.38;;;-3.02;100.00
30338;BME280;17143;51.888;5.408;2022-11-20T04:58:01;101081.25;;;-3.12;100.00
30338;BME280;17143;51.888;5.408;2022-11-20T05:13:03;101054.56;;;-3.15;100.00
30338;BME280;17143;51.888;5.408;2022-11-20T05:28:05;101051.16;;;-3.23;100.00
30338;BME280;17143;51.888;5.408;2022-11-20T05:43:07;101050.06;;;-3.25;100.00
30338;BME280;17143;51.888;5.408;2022-11-20T05:58:09;101073.78;;;-3.33;100.00
30338;BME280;17143;51.888;5.408;2022-11-20T06:13:11;101088.00;;;-3.35;100.00
30338;BME280;17143;51.888;5.408;2022-11-20T06:28:13;101076.00;;;-3.36;100.00
30338;BME280;17143;51.888;5.408;2022-11-20T06:43:15;101077.81;;;-3.35;100.00
30338;BME280;17143;51.888;5.408;2022-11-20T06:58:17;101066.44;;;-3.23;100.00
30338;BME280;17143;51.888;5.408;2022-11-20T07:13:19;101054.31;;;-3.10;100.00
30338;BME280;17143;51.888;5.408;2022-11-20T07:28:21;101042.50;;;-2.93;100.00
30338;BME280;17143;51.888;5.408;2022-11-20T07:43:23;101050.47;;;-2.52;100.00
30338;BME280;17143;51.888;5.408;2022-11-20T07:58:25;101068.53;;;-2.11;100.00
30338;BME280;17143;51.888;5.408;2022-11-20T08:13:27;101040.06;;;-1.58;100.00
30338;BME280;17143;51.888;5.408;2022-11-20T08:28:29;101039.56;;;-1.06;100.00
30338;BME280;17143;51.888;5.408;2022-11-20T08:43:31;101032.94;;;-1.12;100.00
30338;BME280;17143;51.888;5.408;2022-11-20T08:58:33;101036.19;;;-0.89;100.00
30338;BME280;17143;51.888;5.408;2022-11-20T09:13:36;101014.16;;;-0.54;100.00
30338;BME280;17143;51.888;5.408;2022-11-20T09:28:38;100995.34;;;-0.12;100.00
30338;BME280;17143;51.888;5.408;2022-11-20T09:43:49;100982.91;;;0.27;100.00
30338;BME280;17143;51.888;5.408;2022-11-20T09:58:54;100976.44;;;0.75;100.00
30338;BME280;17143;51.888;5.408;2022-11-20T10:14:06;100946.72;;;1.04;100.00
30338;BME280;17143;51.888;5.408;2022-11-20T10:29:15;100921.63;;;1.10;100.00
30338;BME280;17143;51.888;5.408;2022-11-20T10:44:20;100884.81;;;1.28;100.00
30338;BME280;17143;51.888;5.408;2022-11-20T10:59:38;100837.44;;;1.43;100.00
30338;BME280;17143;51.888;5.408;2022-11-20T11:14:45;100823.03;;;1.82;100.00
30338;BME280;17143;51.888;5.408;2022-11-20T11:29:47;100801.97;;;1.87;100.00
30338;BME280;17143;51.888;5.408;2022-11-20T11:44:49;100774.53;;;1.96;100.00
30338;BME280;17143;51.888;5.408;2022-11-20T12:00:01;100766.72;;;2.34;100.00
30338;BME280;17143;51.888;5.408;2022-11-20T12:15:10;100728.31;;;2.56;100.00
30338;BME280;17143;51.888;5.408;2022-11-20T12:30:14;100682.78;;;2.55;100.00
30338;BME280;17143;51.888;5.408;2022-11-20T12:45:42;100644.13;;;2.54;100.00
30338;BME280;17143;51.888;5.408;2022-11-20T13:00:56;100633.78;;;2.64;100.00
30338;BME280;17143;51.888;5.408;2022-11-20T13:16:04;100627.56;;;2.82;100.00
30338;BME280;17143;51.888;5.408;2022-11-20T13:31:25;100566.44;;;2.89;100.00
30338;BME280;17143;51.888;5.408;2022-11-20T13:46:37;100549.41;;;3.01;100.00
30338;BME280;17143;51.888;5.408;2022-11-20T14:01:41;100517.47;;;3.10;100.00
30338;BME280;17143;51.888;5.408;2022-11-20T14:16:45;100499.81;;;3.14;100.00
30338;BME280;17143;51.888;5.408;2022-11-20T14:31:51;100483.03;;;3.19;100.00
30338;BME280;17143;51.888;5.408;2022-11-20T14:46:55;100451.72;;;3.25;100.00
30338;BME280;17143;51.888;5.408;2022-11-20T15:01:59;100430.47;;;3.27;100.00
30338;BME280;17143;51.888;5.408;2022-11-20T15:17:01;100416.75;;;3.38;100.00
30338;BME280;17143;51.888;5.408;2022-11-20T15:32:04;100362.91;;;3.53;100.00
30338;BME280;17143;51.888;5.408;2022-11-20T15:47:07;100322.16;;;3.59;100.00
30338;BME280;17143;51.888;5.408;2022-11-20T16:02:10;100277.94;;;3.64;100.00
30338;BME280;17143;51.888;5.408;2022-11-20T16:17:13;100253.56;;;3.84;100.00
30338;BME280;17143;51.888;5.408;2022-11-20T16:32:15;100227.47;;;3.91;100.00
30338;BME280;17143;51.888;5.408;2022-11-20T16:47:17;100196.41;;;4.01;100.00
30338;BME280;17143;51.888;5.408;2022-11-20T17:02:18;100162.94;;;4.14;100.00
30338;BME280;17143;51.888;5.408;2022-11-20T17:17:20;100152.25;;;4.21;100.00
30338;BME280;17143;51.888;5.408;2022-11-20T17:32:22;100150.09;;;4.27;100.00
30338;BME280;17143;51.888;5.408;2022-11-20T17:47:25;100138.00;;;4.40;100.00
30338;BME280;17143;51.888;5.408;2022-11-20T18:02:27;100149.72;;;4.48;100.00
30338;BME280;17143;51.888;5.408;2022-11-20T18:17:29;100184.06;;;4.47;100.00
30338;BME280;17143;51.888;5.408;2022-11-20T18:32:31;100194.53;;;4.37;100.00
30338;BME280;17143;51.888;5.408;2022-11-20T18:47:35;100210.56;;;4.32;100.00
30338;BME280;17143;51.888;5.408;2022-11-20T19:02:37;100205.41;;;4.32;100.00
30338;BME280;17143;51.888;5.408;2022-11-20T19:17:39;100215.03;;;4.35;100.00
30338;BME280;17143;51.888;5.408;2022-11-20T19:32:41;100220.00;;;4.32;100.00
30338;BME280;17143;51.888;5.408;2022-11-20T19:47:43;100237.31;;;4.21;100.00
30338;BME280;17143;51.888;5.408;2022-11-20T20:02:45;100244.25;;;4.22;100.00
30338;BME280;17143;51.888;5.408;2022-11-20T20:17:49;100260.41;;;4.20;100.00
30338;BME280;17143;51.888;5.408;2022-11-20T20:32:51;100269.38;;;4.13;100.00
30338;BME280;17143;51.888;5.408;2022-11-20T20:47:53;100285.22;;;4.06;100.00
30338;BME280;17143;51.888;5.408;2022-11-20T21:02:55;100299.69;;;4.04;100.00
30338;BME280;17143;51.888;5.408;2022-11-20T21:17:57;100309.31;;;4.07;100.00
30338;BME280;17143;51.888;5.408;2022-11-20T21:33:00;100306.59;;;4.05;100.00
30338;BME280;17143;51.888;5.408;2022-11-20T21:48:02;100309.47;;;4.21;100.00
30338;BME280;17143;51.888;5.408;2022-11-20T22:03:04;100321.44;;;4.32;100.00
30338;BME280;17143;51.888;5.408;2022-11-20T22:18:06;100320.88;;;4.37;100.00
30338;BME280;17143;51.888;5.408;2022-11-20T22:33:08;100324.66;;;4.42;100.00
30338;BME280;17143;51.888;5.408;2022-11-20T22:48:10;100357.84;;;4.37;100.00
30338;BME280;17143;51.888;5.408;2022-11-20T23:03:12;100379.16;;;4.35;100.00
30338;BME280;17143;51.888;5.408;2022-11-20T23:18:14;100369.44;;;4.30;100.00
30338;BME280;17143;51.888;5.408;2022-11-20T23:33:16;100402.50;;;4.24;100.00
30338;BME280;17143;51.888;5.408;2022-11-20T23:48:18;100423.13;;;4.24;100.00
